Time;durP1;ratioP1;P1;durP2;ratioP2;P2;SDS_P1;SDS_P2;PMS_P1;PMS_P2;Temp;Humidity;BMP_temperature;BMP_pressure;BME280_temperature;BME280_humidity;BME280_pressure;Samples;Min_cycle;Max_cycle;Signal;HPM_P1;HPM_P2
2021/05/15 00:00:28;;;;;;;3.90;2.58;;;12.20;99.90;;;;;;4992151;28;20034;-79
2021/05/15 00:02:55;;;;;;;4.25;2.45;;;12.50;99.90;;;;;;4976940;28;20110;-78
2021/05/15 00:05:21;;;;;;;5.32;2.40;;;12.20;99.90;;;;;;4994272;28;20027;-79
2021/05/15 00:07:47;;;;;;;2.70;2.28;;;12.60;99.90;;;;;;4991360;28;20030;-79
2021/05/15 00:10:13;;;;;;;3.83;2.33;;;12.20;99.90;;;;;;4990820;28;20038;-80
2021/05/15 00:12:38;;;;;;;3.17;2.30;;;12.20;99.90;;;;;;4992413;28;20038;-79
2021/05/15 00:15:06;;;;;;;4.55;2.40;;;12.20;99.90;;;;;;4991766;28;20037;-79
2021/05/15 00:17:33;;;;;;;4.13;2.47;;;12.10;99.90;;;;;;4993495;28;20030;-79
2021/05/15 00:19:58;;;;;;;2.90;2.28;;;12.10;99.90;;;;;;4993706;28;20113;-79
2021/05/15 00:22:24;;;;;;;4.30;2.45;;;12.00;99.90;;;;;;4992082;28;20118;-79
2021/05/15 00:24:50;;;;;;;3.30;2.20;;;12.00;99.90;;;;;;4992271;28;20081;-79
2021/05/15 00:27:15;;;;;;;2.58;2.30;;;12.10;99.90;;;;;;4992048;28;20031;-80
2021/05/15 00:29:41;;;;;;;3.42;2.53;;;11.90;99.90;;;;;;4991739;28;20034;-79
2021/05/15 00:32:06;;;;;;;3.13;2.50;;;11.90;99.90;;;;;;4994340;28;20052;-79
2021/05/15 00:34:32;;;;;;;3.38;2.33;;;12.40;99.90;;;;;;4978462;28;20488;-79
2021/05/15 00:36:58;;;;;;;3.17;2.35;;;12.10;99.90;;;;;;4978754;28;20402;-79
2021/05/15 00:39:23;;;;;;;6.28;2.03;;;11.70;99.90;;;;;;4991818;28;20038;-79
2021/05/15 00:41:49;;;;;;;2.40;2.10;;;12.10;99.90;;;;;;4991832;28;20035;-79
2021/05/15 00:46:43;;;;;;;3.08;1.98;;;11.60;99.90;;;;;;4990180;28;20800;-78
2021/05/15 00:49:09;;;;;;;4.38;2.55;;;11.80;99.90;;;;;;4990092;28;20038;-79
2021/05/15 00:51:35;;;;;;;2.50;2.25;;;11.60;99.90;;;;;;4991838;28;20121;-79
2021/05/15 00:54:02;;;;;;;4.55;2.42;;;11.70;99.90;;;;;;4991532;28;20794;-79
2021/05/15 00:56:29;;;;;;;4.40;2.33;;;11.70;99.90;;;;;;4993199;28;20084;-79
2021/05/15 00:58:55;;;;;;;4.55;2.40;;;11.70;99.90;;;;;;4990415;28;20042;-79
2021/05/15 01:01:21;;;;;;;3.22;2.33;;;11.70;99.90;;;;;;4991384;28;20039;-79
2021/05/15 01:03:47;;;;;;;3.65;2.25;;;11.70;99.90;;;;;;4990610;28;20027;-79
2021/05/15 01:06:13;;;;;;;3.05;2.20;;;11.70;99.90;;;;;;4991572;28;20457;-79
2021/05/15 01:08:44;;;;;;;5.85;2.50;;;11.70;99.90;;;;;;4992146;28;20038;-79
2021/05/15 01:11:10;;;;;;;4.60;2.42;;;11.60;99.90;;;;;;4991257;28;20043;-79
2021/05/15 01:13:36;;;;;;;4.15;2.70;;;11.60;99.90;;;;;;4991028;28;20023;-79
2021/05/15 01:16:01;;;;;;;4.47;2.50;;;11.50;99.90;;;;;;4990905;28;20520;-79
2021/05/15 01:18:27;;;;;;;4.93;2.72;;;12.00;99.90;;;;;;4992021;28;20029;-79
2021/05/15 01:20:58;;;;;;;3.65;2.42;;;11.60;99.90;;;;;;4991082;28;20530;-79
2021/05/15 01:23:24;;;;;;;5.63;2.88;;;11.60;99.90;;;;;;4988942;28;20030;-79
2021/05/15 01:25:50;;;;;;;4.35;2.45;;;11.40;99.90;;;;;;4989728;28;20033;-79
2021/05/15 01:28:16;;;;;;;3.22;2.42;;;11.40;1.00;;;;;;4989343;28;20034;-79
2021/05/15 01:30:42;;;;;;;4.35;2.47;;;11.20;1.00;;;;;;4990709;28;20034;-79
2021/05/15 01:33:08;;;;;;;4.22;2.80;;;11.30;1.00;;;;;;4991030;28;20040;-79
2021/05/15 01:35:33;;;;;;;4.70;2.80;;;11.60;1.00;;;;;;4992001;28;20102;-79
2021/05/15 01:37:59;;;;;;;4.57;2.67;;;11.70;1.00;;;;;;4992055;28;20117;-79
2021/05/15 01:40:24;;;;;;;3.80;2.35;;;11.80;1.00;;;;;;4990577;28;20027;-79
2021/05/15 01:42:50;;;;;;;3.83;2.33;;;11.40;1.00;;;;;;4990804;28;20057;-78
2021/05/15 01:45:16;;;;;;;4.25;2.45;;;11.90;1.00;;;;;;4990634;28;20526;-79
2021/05/15 01:47:41;;;;;;;5.70;2.65;;;11.40;1.00;;;;;;4990939;28;20415;-79
2021/05/15 01:50:12;;;;;;;4.97;2.53;;;11.30;1.00;;;;;;4992491;28;20034;-79
2021/05/15 01:52:38;;;;;;;2.70;2.13;;;11.20;1.00;;;;;;4990219;28;20030;-79
2021/05/15 01:55:12;;;;;;;3.63;2.33;;;11.20;1.00;;;;;;4990771;28;20033;-79
2021/05/15 01:57:37;;;;;;;4.90;2.28;;;11.10;1.00;;;;;;4990444;28;20032;-79
2021/05/15 02:00:04;;;;;;;5.15;2.45;;;11.20;1.00;;;;;;4990366;28;20023;-79
2021/05/15 02:02:30;;;;;;;4.03;2.30;;;11.20;1.00;;;;;;4992267;28;20018;-79
2021/05/15 02:04:55;;;;;;;3.63;2.40;;;11.20;1.00;;;;;;4989949;28;21086;-79
2021/05/15 02:07:21;;;;;;;4.95;2.50;;;11.30;1.00;;;;;;4989276;28;20030;-80
2021/05/15 02:09:46;;;;;;;3.22;2.13;;;11.50;1.00;;;;;;4989377;28;20034;-79
2021/05/15 02:12:12;;;;;;;3.35;1.88;;;11.00;1.00;;;;;;4990145;28;20034;-79
2021/05/15 02:14:37;;;;;;;5.00;2.00;;;11.10;1.00;;;;;;4991152;28;20395;-79
2021/05/15 02:17:03;;;;;;;5.78;2.33;;;11.10;1.00;;;;;;4991402;28;20038;-79
2021/05/15 02:19:29;;;;;;;3.20;2.22;;;11.30;1.00;;;;;;4990473;28;20033;-79
2021/05/15 02:21:54;;;;;;;2.80;1.95;;;11.20;1.00;;;;;;4990019;28;20029;-78
2021/05/15 02:24:20;;;;;;;3.22;2.33;;;11.20;1.00;;;;;;4990005;28;20023;-79
2021/05/15 02:26:45;;;;;;;1.92;1.73;;;11.10;1.00;;;;;;4989825;28;20031;-79
2021/05/15 02:29:11;;;;;;;2.78;1.95;;;11.10;1.00;;;;;;4992001;28;20035;-79
2021/05/15 02:31:36;;;;;;;5.60;1.80;;;11.10;1.00;;;;;;4989786;28;20160;-79
2021/05/15 02:34:02;;;;;;;3.03;1.83;;;11.20;1.00;;;;;;4989941;28;20030;-79
2021/05/15 02:36:28;;;;;;;3.42;1.70;;;11.20;1.00;;;;;;4973828;28;20033;-79
2021/05/15 02:38:54;;;;;;;3.92;1.73;;;11.20;1.00;;;;;;4989970;28;20041;-79
2021/05/15 02:41:20;;;;;;;2.53;1.80;;;11.50;1.00;;;;;;4991883;28;20022;-79
2021/05/15 02:43:46;;;;;;;4.82;1.85;;;11.50;1.00;;;;;;4988555;28;20030;-79
2021/05/15 02:46:11;;;;;;;4.35;1.48;;;11.20;1.00;;;;;;4988725;28;20034;-79
2021/05/15 02:48:37;;;;;;;2.50;1.60;;;11.30;1.00;;;;;;4974675;28;20475;-79
2021/05/15 02:51:03;;;;;;;4.22;1.67;;;11.40;1.00;;;;;;4989733;28;20041;-79
2021/05/15 02:53:28;;;;;;;4.70;2.10;;;11.30;1.00;;;;;;4991230;28;20026;-78
2021/05/15 02:55:54;;;;;;;2.70;1.75;;;11.10;1.00;;;;;;4990466;28;20113;-79
2021/05/15 02:58:19;;;;;;;4.40;2.00;;;11.10;1.00;;;;;;4989703;28;20034;-79
2021/05/15 03:00:45;;;;;;;2.70;1.77;;;10.90;1.00;;;;;;4989937;28;20035;-79
2021/05/15 03:03:11;;;;;;;3.20;1.92;;;11.00;1.00;;;;;;4989744;28;20034;-79
2021/05/15 03:05:36;;;;;;;5.00;1.67;;;11.10;1.00;;;;;;4990490;28;20038;-79
2021/05/15 03:08:02;;;;;;;4.60;1.70;;;11.00;1.00;;;;;;4990842;28;20022;-79
2021/05/15 03:10:28;;;;;;;3.38;2.05;;;11.10;1.00;;;;;;4989587;28;20060;-79
2021/05/15 03:12:55;;;;;;;4.35;1.90;;;11.00;1.00;;;;;;4989955;28;20037;-79
2021/05/15 03:15:22;;;;;;;3.30;1.65;;;11.10;1.00;;;;;;4989594;28;20368;-80
2021/05/15 03:17:48;;;;;;;2.65;1.52;;;10.90;1.00;;;;;;4989720;28;20426;-79
2021/05/15 03:20:20;;;;;;;2.30;1.63;;;10.70;1.00;;;;;;4991755;28;20026;-79
2021/05/15 03:22:47;;;;;;;6.43;1.70;;;10.70;1.00;;;;;;4988128;28;20042;-80
2021/05/15 03:25:13;;;;;;;6.47;1.90;;;10.70;1.00;;;;;;4988374;28;20027;-79
2021/05/15 03:27:38;;;;;;;4.38;1.70;;;10.80;1.00;;;;;;4990972;28;20037;-79
2021/05/15 03:30:06;;;;;;;3.58;1.60;;;11.30;1.00;;;;;;4993756;28;20492;-79
2021/05/15 03:32:32;;;;;;;2.22;1.70;;;10.90;1.00;;;;;;4994021;28;20057;-79
2021/05/15 03:34:58;;;;;;;3.95;1.67;;;10.90;1.00;;;;;;4994019;28;20014;-79
2021/05/15 03:37:23;;;;;;;4.78;1.70;;;10.80;1.00;;;;;;4992956;28;20026;-78
2021/05/15 03:39:50;;;;;;;3.20;1.50;;;10.90;1.00;;;;;;4992974;28;20507;-79
2021/05/15 03:42:15;;;;;;;2.22;1.63;;;11.30;1.00;;;;;;4992847;28;20030;-79
2021/05/15 03:44:41;;;;;;;2.72;1.75;;;10.80;1.00;;;;;;4993443;28;20084;-79
2021/05/15 03:47:06;;;;;;;4.45;1.67;;;10.90;1.00;;;;;;4994540;28;20065;-79
2021/05/15 03:49:32;;;;;;;2.72;1.58;;;11.00;1.00;;;;;;4993231;28;20030;-79
2021/05/15 03:51:58;;;;;;;3.20;1.70;;;11.10;1.00;;;;;;4992224;28;20042;-79
2021/05/15 03:54:24;;;;;;;3.13;1.60;;;11.10;1.00;;;;;;4992520;28;20053;-79
2021/05/15 03:56:50;;;;;;;3.08;1.85;;;11.10;1.00;;;;;;4992702;28;20030;-79
2021/05/15 03:59:15;;;;;;;4.22;2.65;;;11.20;1.00;;;;;;4994691;28;20101;-79
2021/05/15 04:01:41;;;;;;;5.55;3.15;;;11.00;1.00;;;;;;4978310;28;20038;-79
2021/05/15 04:04:07;;;;;;;5.60;2.63;;;11.10;1.00;;;;;;4991036;28;20121;-79
2021/05/15 04:06:32;;;;;;;4.30;2.25;;;11.20;1.00;;;;;;4992367;28;20034;-79
2021/05/15 04:08:58;;;;;;;3.15;2.10;;;11.30;1.00;;;;;;4992731;28;20023;-80
2021/05/15 04:11:32;;;;;;;3.15;1.90;;;11.30;1.00;;;;;;4994632;28;20491;-79
2021/05/15 04:14:00;;;;;;;3.53;1.75;;;11.20;1.00;;;;;;4991590;28;20457;-79
2021/05/15 04:16:45;;;;;;;3.15;1.73;;;11.30;1.00;;;;;;4992589;28;20045;-79
2021/05/15 04:19:11;;;;;;;3.72;1.40;;;11.00;1.00;;;;;;4992235;28;20022;-79
2021/05/15 04:21:36;;;;;;;4.43;1.88;;;11.00;1.00;;;;;;4991791;28;20071;-79
2021/05/15 04:24:02;;;;;;;2.83;1.90;;;11.00;1.00;;;;;;4992422;28;20033;-79
2021/05/15 04:26:28;;;;;;;2.22;1.58;;;10.90;1.00;;;;;;4993916;28;20455;-78
2021/05/15 04:28:54;;;;;;;2.42;1.77;;;11.40;1.00;;;;;;4992670;28;20053;-79
2021/05/15 04:31:19;;;;;;;2.97;1.75;;;11.00;1.00;;;;;;4991961;28;20073;-79
2021/05/15 04:33:45;;;;;;;2.63;1.70;;;11.00;1.00;;;;;;4991698;28;20100;-79
2021/05/15 04:36:10;;;;;;;2.80;1.65;;;11.00;1.00;;;;;;4991804;28;20501;-79
2021/05/15 04:38:36;;;;;;;3.25;2.10;;;11.00;1.00;;;;;;4977164;28;20034;-80
2021/05/15 04:41:01;;;;;;;2.65;1.90;;;11.50;1.00;;;;;;4991273;28;20450;-79
2021/05/15 04:43:27;;;;;;;3.92;1.60;;;11.00;1.00;;;;;;4990233;28;20302;-79
2021/05/15 04:45:55;;;;;;;4.70;1.67;;;10.90;1.00;;;;;;4991667;28;20058;-79
2021/05/15 04:48:21;;;;;;;3.58;2.25;;;10.70;1.00;;;;;;4992286;28;20050;-79
2021/05/15 04:50:46;;;;;;;3.63;1.75;;;10.90;1.00;;;;;;4991185;28;20133;-79
2021/05/15 04:53:12;;;;;;;3.38;1.80;;;11.10;1.00;;;;;;4993722;28;20037;-79
2021/05/15 04:55:37;;;;;;;3.88;1.98;;;10.80;1.00;;;;;;4991359;28;20034;-79
2021/05/15 04:58:03;;;;;;;4.97;1.92;;;10.60;1.00;;;;;;4991196;28;20037;-80
2021/05/15 05:00:29;;;;;;;3.78;2.00;;;10.90;1.00;;;;;;4991828;28;20113;-80
2021/05/15 05:02:54;;;;;;;3.10;1.70;;;11.00;1.00;;;;;;4990780;28;20031;-79
2021/05/15 05:05:20;;;;;;;2.45;1.90;;;11.10;1.00;;;;;;4992550;28;20479;-80
2021/05/15 05:07:46;;;;;;;3.65;1.90;;;11.30;1.00;;;;;;4991330;28;20053;-80
2021/05/15 05:10:12;;;;;;;3.35;2.17;;;11.20;1.00;;;;;;4991015;28;20030;-79
2021/05/15 05:12:37;;;;;;;5.97;1.80;;;11.40;1.00;;;;;;4990880;28;20034;-80
2021/05/15 05:15:04;;;;;;;3.40;2.00;;;11.50;1.00;;;;;;4990510;28;20022;-80
2021/05/15 05:17:30;;;;;;;4.00;1.75;;;11.40;1.00;;;;;;4992556;28;20512;-80
2021/05/15 05:19:55;;;;;;;2.67;1.88;;;11.50;1.00;;;;;;4990275;28;20054;-79
2021/05/15 05:22:21;;;;;;;3.13;1.80;;;11.50;1.00;;;;;;4989588;28;20030;-79
2021/05/15 05:24:47;;;;;;;2.47;1.70;;;11.60;1.00;;;;;;4991175;28;20026;-80
2021/05/15 05:27:14;;;;;;;4.13;1.60;;;11.60;1.00;;;;;;4991147;28;20041;-79
2021/05/15 05:29:39;;;;;;;4.32;1.70;;;11.70;1.00;;;;;;4991709;28;20405;-79
2021/05/15 05:32:08;;;;;;;2.90;1.45;;;11.80;1.00;;;;;;4992174;28;20045;-79
2021/05/15 05:34:36;;;;;;;2.33;1.35;;;11.80;1.00;;;;;;4977467;28;20030;-79
2021/05/15 05:37:02;;;;;;;3.08;1.50;;;11.80;1.00;;;;;;4990866;28;20054;-79
2021/05/15 05:39:27;;;;;;;3.47;1.55;;;11.90;1.00;;;;;;4990628;28;20522;-79
2021/05/15 05:41:53;;;;;;;2.00;1.42;;;12.40;1.00;;;;;;4990706;28;20034;-80
2021/05/15 05:44:19;;;;;;;8.85;2.13;;;12.20;1.00;;;;;;4992436;28;20030;-79
2021/05/15 05:46:44;;;;;;;2.05;1.35;;;12.20;1.00;;;;;;4990237;28;20034;-77
2021/05/15 05:49:10;;;;;;;4.05;1.50;;;12.20;1.00;;;;;;4990283;28;20042;-77
2021/05/15 05:51:35;;;;;;;3.88;1.40;;;12.60;99.90;;;;;;4990371;28;20121;-77
2021/05/15 05:54:02;;;;;;;3.90;1.60;;;12.40;99.90;;;;;;4990329;28;20153;-78
2021/05/15 05:56:28;;;;;;;2.10;1.38;;;12.40;99.90;;;;;;4992464;28;20113;-77
2021/05/15 05:58:55;;;;;;;1.80;1.40;;;12.40;99.90;;;;;;4988959;28;20158;-78
2021/05/15 06:01:20;;;;;;;4.32;1.40;;;12.40;99.90;;;;;;4988714;28;20030;-77
2021/05/15 06:03:46;;;;;;;2.15;1.30;;;12.40;99.90;;;;;;4990335;28;20033;-77
2021/05/15 06:06:12;;;;;;;2.03;1.15;;;12.50;99.90;;;;;;4989910;28;20042;-77
2021/05/15 06:08:37;;;;;;;2.90;1.42;;;12.50;99.90;;;;;;4991428;28;20033;-76
2021/05/15 06:11:04;;;;;;;2.92;1.35;;;12.50;99.90;;;;;;4991508;28;20041;-79
2021/05/15 06:13:30;;;;;;;3.42;1.50;;;12.60;99.90;;;;;;4977336;28;20065;-78
2021/05/15 06:15:55;;;;;;;1.92;1.55;;;12.60;99.90;;;;;;4989716;28;20085;-79
2021/05/15 06:18:21;;;;;;;3.10;1.17;;;12.70;99.90;;;;;;4990553;28;20480;-78
2021/05/15 06:20:47;;;;;;;1.30;1.05;;;12.70;99.90;;;;;;4990033;28;20034;-78
2021/05/15 06:23:14;;;;;;;2.75;1.13;;;12.50;99.90;;;;;;4992172;28;20031;-78
2021/05/15 06:25:40;;;;;;;1.65;1.10;;;12.90;99.90;;;;;;4990113;28;20038;-78
2021/05/15 06:28:05;;;;;;;1.88;1.00;;;12.40;99.90;;;;;;4989898;28;20030;-78
2021/05/15 06:30:31;;;;;;;3.17;0.88;;;12.70;99.90;;;;;;4989996;28;20073;-79
2021/05/15 06:32:57;;;;;;;2.53;1.27;;;12.60;99.90;;;;;;4972649;28;20042;-78
2021/05/15 06:35:22;;;;;;;3.17;1.17;;;12.60;99.90;;;;;;4991925;28;20030;-79
2021/05/15 06:37:48;;;;;;;1.92;1.10;;;12.60;99.90;;;;;;4988690;28;20517;-78
2021/05/15 06:40:14;;;;;;;2.10;1.17;;;12.70;99.90;;;;;;4988684;28;20027;-78
2021/05/15 06:42:40;;;;;;;2.95;1.17;;;12.90;99.90;;;;;;4989730;28;20034;-78
2021/05/15 06:45:08;;;;;;;2.95;1.10;;;12.80;99.90;;;;;;4989628;28;20414;-80
2021/05/15 06:47:34;;;;;;;2.53;1.13;;;12.70;99.90;;;;;;4990925;28;20526;-80
2021/05/15 06:50:00;;;;;;;1.10;1.00;;;12.90;99.90;;;;;;4990682;28;20034;-80
2021/05/15 06:52:26;;;;;;;2.20;1.10;;;13.10;99.90;;;;;;4989181;28;20069;-80
2021/05/15 06:54:51;;;;;;;3.08;1.25;;;13.60;99.90;;;;;;4989661;28;20041;-79
2021/05/15 06:57:19;;;;;;;2.30;1.30;;;13.60;99.90;;;;;;4989588;28;20034;-79
2021/05/15 06:59:45;;;;;;;3.13;1.58;;;13.20;99.90;;;;;;4989177;28;20611;-79
2021/05/15 07:02:10;;;;;;;2.22;1.10;;;13.30;99.90;;;;;;4992137;28;20124;-79
2021/05/15 07:04:36;;;;;;;1.90;1.10;;;13.40;99.90;;;;;;4993410;28;20070;-80
2021/05/15 07:07:01;;;;;;;3.80;1.30;;;13.40;99.90;;;;;;4993200;28;20529;-78
2021/05/15 07:09:27;;;;;;;2.70;1.40;;;13.40;99.90;;;;;;4993782;28;20081;-78
2021/05/15 07:11:52;;;;;;;3.95;1.58;;;13.50;99.90;;;;;;4993735;28;20042;-80
2021/05/15 07:14:18;;;;;;;3.28;1.48;;;13.50;99.90;;;;;;4994633;28;20599;-77
2021/05/15 07:16:45;;;;;;;1.92;1.38;;;13.50;99.90;;;;;;4992593;28;20027;-77
2021/05/15 07:19:10;;;;;;;2.50;1.20;;;13.40;99.90;;;;;;4992106;28;20495;-77
2021/05/15 07:21:37;;;;;;;1.50;1.02;;;13.10;99.90;;;;;;4992889;28;20026;-78
2021/05/15 07:24:03;;;;;;;2.65;1.27;;;13.10;99.90;;;;;;4993545;28;20449;-76
2021/05/15 07:26:29;;;;;;;2.10;1.27;;;13.10;99.90;;;;;;4994474;28;20403;-75
2021/05/15 07:28:55;;;;;;;2.00;1.20;;;12.90;99.90;;;;;;4992984;28;20030;-76
2021/05/15 07:31:20;;;;;;;3.85;1.40;;;13.10;99.90;;;;;;4992742;28;20137;-78
2021/05/15 07:33:46;;;;;;;5.07;1.38;;;13.30;99.90;;;;;;4992674;28;20022;-75
2021/05/15 07:36:12;;;;;;;3.17;1.60;;;13.50;99.90;;;;;;4993406;28;20042;-78
2021/05/15 07:38:38;;;;;;;2.38;1.40;;;13.70;99.90;;;;;;4993913;28;20061;-78
2021/05/15 07:41:04;;;;;;;1.63;1.20;;;13.30;99.90;;;;;;4994442;28;20061;-78
2021/05/15 07:43:30;;;;;;;3.55;1.35;;;13.20;99.90;;;;;;4992177;28;20459;-79
2021/05/15 07:45:57;;;;;;;2.78;1.35;;;13.10;99.90;;;;;;4992796;28;20019;-78
2021/05/15 07:48:37;;;;;;;1.88;1.10;;;13.20;99.90;;;;;;4992672;28;20515;-78
2021/05/15 07:51:05;;;;;;;5.90;1.83;;;13.40;99.90;;;;;;4977944;28;20096;-76
2021/05/15 07:53:31;;;;;;;2.65;1.30;;;13.20;99.90;;;;;;4993922;28;20027;-77
2021/05/15 07:55:57;;;;;;;3.40;1.58;;;13.00;99.90;;;;;;4977802;28;20407;-78
2021/05/15 07:58:23;;;;;;;2.85;1.38;;;13.20;99.90;;;;;;4990825;28;20034;-79
2021/05/15 08:00:48;;;;;;;4.45;1.67;;;13.50;99.90;;;;;;4991525;28;20022;-78
2021/05/15 08:03:14;;;;;;;3.17;1.15;;;13.20;99.90;;;;;;4991829;28;20034;-79
2021/05/15 08:05:39;;;;;;;3.05;1.50;;;13.30;99.90;;;;;;4977503;28;20105;-78
2021/05/15 08:08:06;;;;;;;5.40;1.15;;;13.20;99.90;;;;;;4993454;28;20407;-78
2021/05/15 08:10:32;;;;;;;4.10;1.27;;;13.50;99.90;;;;;;4990834;28;20030;-78
2021/05/15 08:12:59;;;;;;;4.03;1.30;;;13.50;99.90;;;;;;4990836;28;20113;-78
2021/05/15 08:15:25;;;;;;;2.40;1.25;;;13.40;99.90;;;;;;4992347;28;20118;-78
2021/05/15 08:17:51;;;;;;;1.92;1.20;;;13.50;99.90;;;;;;4992693;28;20110;-78
2021/05/15 08:20:18;;;;;;;1.88;1.20;;;13.50;99.90;;;;;;4994662;28;20042;-78
2021/05/15 08:22:43;;;;;;;4.32;1.50;;;13.90;99.90;;;;;;4991858;28;20037;-78
2021/05/15 08:25:11;;;;;;;2.38;1.35;;;14.00;99.90;;;;;;4992152;28;20030;-78
2021/05/15 08:27:39;;;;;;;3.20;1.55;;;13.50;1.00;;;;;;4991657;28;20031;-78
2021/05/15 08:30:18;;;;;;;2.55;1.20;;;13.40;99.90;;;;;;4993283;28;20033;-78
2021/05/15 08:32:51;;;;;;;4.57;1.20;;;13.20;99.90;;;;;;4992963;28;20056;-78
2021/05/15 08:35:18;;;;;;;1.73;1.05;;;12.90;99.90;;;;;;4979669;28;20469;-78
2021/05/15 08:37:44;;;;;;;4.97;1.70;;;12.90;99.90;;;;;;4990373;28;20034;-78
2021/05/15 08:40:10;;;;;;;3.00;1.52;;;12.90;99.90;;;;;;4992055;28;20050;-77
2021/05/15 08:42:38;;;;;;;2.63;1.23;;;13.00;99.90;;;;;;4991311;28;20034;-79
2021/05/15 08:45:05;;;;;;;3.55;1.40;;;13.40;99.90;;;;;;4991797;28;20084;-79
2021/05/15 08:47:31;;;;;;;6.82;1.25;;;13.00;99.90;;;;;;4993496;28;20519;-78
2021/05/15 08:50:01;;;;;;;2.92;1.75;;;13.10;1.00;;;;;;4990780;28;20038;-78
2021/05/15 08:52:27;;;;;;;2.17;1.02;;;12.90;99.90;;;;;;4991846;28;20121;-78
2021/05/15 08:54:53;;;;;;;1.95;1.20;;;12.80;99.90;;;;;;4991981;28;20486;-79
2021/05/15 08:57:19;;;;;;;4.13;1.00;;;12.60;99.90;;;;;;4990583;28;20022;-78
2021/05/15 08:59:50;;;;;;;3.85;1.10;;;12.80;99.90;;;;;;4991620;28;20022;-77
2021/05/15 09:02:17;;;;;;;1.10;0.85;;;13.00;99.90;;;;;;4993210;28;20066;-78
2021/05/15 09:04:43;;;;;;;2.30;1.10;;;12.70;99.90;;;;;;4991935;28;20363;-77
2021/05/15 09:07:10;;;;;;;2.13;1.02;;;13.00;99.90;;;;;;4991172;28;20027;-78
2021/05/15 09:09:35;;;;;;;3.08;1.40;;;13.60;99.90;;;;;;4990874;28;20030;-77
2021/05/15 09:12:01;;;;;;;2.85;1.10;;;12.70;99.90;;;;;;4989803;28;20085;-79
2021/05/15 09:14:27;;;;;;;2.63;1.48;;;13.00;99.90;;;;;;4993593;28;20030;-78
2021/05/15 09:16:55;;;;;;;3.08;1.10;;;13.00;99.90;;;;;;4989438;28;20081;-78
2021/05/15 09:19:22;;;;;;;4.25;1.40;;;13.10;99.90;;;;;;4991801;28;20057;-79
2021/05/15 09:22:03;;;;;;;4.90;1.30;;;13.00;99.90;;;;;;4991036;28;20041;-79
2021/05/15 09:24:40;;;;;;;3.40;1.50;;;12.50;99.90;;;;;;4990529;28;20018;-79
2021/05/15 09:27:08;;;;;;;3.67;1.30;;;12.50;99.90;;;;;;4977167;28;20046;-78
2021/05/15 09:30:00;;;;;;;2.67;1.20;;;11.90;99.90;;;;;;4991870;28;20027;-78
2021/05/15 09:32:32;;;;;;;2.58;1.25;;;11.60;1.00;;;;;;4985555;28;20054;-78
2021/05/15 09:34:58;;;;;;;2.50;1.10;;;11.70;99.90;;;;;;4989949;28;20035;-78
2021/05/15 09:37:35;;;;;;;4.75;1.58;;;11.50;1.00;;;;;;4991120;28;20054;-77
2021/05/15 09:40:11;;;;;;;2.28;1.63;;;11.20;1.00;;;;;;4990523;28;20030;-77
2021/05/15 09:42:47;;;;;;;6.72;1.70;;;10.90;1.00;;;;;;4990065;28;20030;-78
2021/05/15 09:45:34;;;;;;;2.92;1.40;;;11.10;99.90;;;;;;4990561;28;20036;-77
2021/05/15 09:48:08;;;;;;;3.60;1.80;;;11.30;99.90;;;;;;4975710;28;20093;-78
2021/05/15 09:50:37;;;;;;;3.50;1.60;;;11.30;23.70;;;;;;4992356;28;20039;-78
2021/05/15 09:53:19;;;;;;;3.03;1.33;;;12.00;1.00;;;;;;4991394;28;20383;-77
2021/05/15 09:55:51;;;;;;;3.15;1.40;;;11.20;94.30;;;;;;4989475;28;20038;-78
2021/05/15 09:58:17;;;;;;;3.38;1.63;;;11.50;1.00;;;;;;4990896;28;20524;-77
2021/05/15 10:00:49;;;;;;;2.10;1.30;;;11.90;1.00;;;;;;4990281;28;20101;-77
2021/05/15 10:03:22;;;;;;;3.05;1.70;;;11.60;1.00;;;;;;4990828;28;20034;-77
2021/05/15 10:06:05;;;;;;;3.38;1.60;;;11.60;1.00;;;;;;4990404;28;20031;-76
2021/05/15 10:08:32;;;;;;;3.28;1.67;;;12.00;1.00;;;;;;4987723;28;20501;-77
2021/05/15 10:10:59;;;;;;;2.13;1.30;;;12.10;1.00;;;;;;4990168;28;20160;-76
2021/05/15 10:13:25;;;;;;;4.35;1.83;;;12.10;1.00;;;;;;4990311;28;20487;-77
2021/05/15 10:15:51;;;;;;;1.67;1.23;;;12.00;1.00;;;;;;4990527;28;20028;-76
2021/05/15 10:18:17;;;;;;;2.33;1.48;;;11.90;1.00;;;;;;4990140;28;20023;-76
2021/05/15 10:20:45;;;;;;;2.63;1.40;;;12.10;1.00;;;;;;4990204;28;20386;-77
2021/05/15 10:23:18;;;;;;;1.83;1.00;;;12.30;1.00;;;;;;4991268;28;20106;-79
2021/05/15 10:25:44;;;;;;;4.07;1.48;;;12.40;1.00;;;;;;4990421;28;20038;-79
2021/05/15 10:28:10;;;;;;;3.15;1.38;;;12.60;1.00;;;;;;4989737;28;20026;-81
2021/05/15 10:30:36;;;;;;;1.88;1.20;;;12.20;1.00;;;;;;4988825;28;20085;-81
2021/05/15 10:33:07;;;;;;;2.92;1.63;;;12.30;1.00;;;;;;4989386;28;20038;-81
2021/05/15 10:35:39;;;;;;;4.75;1.40;;;12.40;1.00;;;;;;4990931;28;20029;-82
2021/05/15 10:38:10;;;;;;;2.83;1.17;;;12.70;1.00;;;;;;4995270;28;20411;-81
2021/05/15 10:40:52;;;;;;;4.65;1.23;;;12.20;1.00;;;;;;4993392;28;20022;-82
2021/05/15 10:43:35;;;;;;;2.15;1.33;;;12.10;1.00;;;;;;4994248;28;20042;-79
2021/05/15 10:46:28;;;;;;;2.45;0.88;;;12.30;1.00;;;;;;4993791;28;20421;-82
2021/05/15 10:48:59;;;;;;;3.28;1.52;;;12.20;1.00;;;;;;4993771;28;20042;-82
2021/05/15 10:51:46;;;;;;;2.55;1.30;;;12.60;1.00;;;;;;4993413;28;20038;-76
2021/05/15 10:54:16;;;;;;;3.03;1.40;;;12.90;1.00;;;;;;4980521;28;20039;-79
2021/05/15 10:56:42;;;;;;;2.03;1.20;;;12.40;1.00;;;;;;4994002;28;20097;-80
2021/05/15 10:59:21;;;;;;;1.63;1.20;;;12.80;1.00;;;;;;4995651;28;20035;-81
2021/05/15 11:01:55;;;;;;;1.67;1.10;;;12.30;1.00;;;;;;4993839;28;20038;-81
2021/05/15 11:04:46;;;;;;;2.22;1.10;;;12.60;1.00;;;;;;4993311;28;20022;-80
2021/05/15 11:07:12;;;;;;;3.67;1.05;;;12.20;1.00;;;;;;4992829;28;20053;-81
2021/05/15 11:09:59;;;;;;;3.15;1.40;;;12.40;1.00;;;;;;4992506;28;20084;-80
2021/05/15 11:12:29;;;;;;;3.67;1.00;;;12.80;1.00;;;;;;4992268;28;20038;-80
2021/05/15 11:15:03;;;;;;;5.60;1.70;;;12.60;1.00;;;;;;4993159;28;20114;-80
2021/05/15 11:17:30;;;;;;;1.38;0.80;;;12.40;1.00;;;;;;4991777;28;20037;-80
2021/05/15 11:20:15;;;;;;;3.15;1.00;;;12.40;1.00;;;;;;4994444;28;20058;-80
2021/05/15 11:22:51;;;;;;;3.20;1.10;;;12.60;1.00;;;;;;4993058;28;20030;-79
2021/05/15 11:25:19;;;;;;;1.80;1.05;;;12.70;1.00;;;;;;4993175;28;20033;-80
2021/05/15 11:28:08;;;;;;;2.03;1.00;;;12.50;1.00;;;;;;4992583;28;20035;-78
2021/05/15 11:30:42;;;;;;;1.67;1.20;;;12.50;1.00;;;;;;4993306;28;20026;-78
2021/05/15 11:33:12;;;;;;;1.77;1.20;;;12.30;1.00;;;;;;4993325;28;20049;-82
2021/05/15 11:35:40;;;;;;;2.80;1.00;;;12.30;1.00;;;;;;4978485;28;20486;-78
2021/05/15 11:38:09;;;;;;;1.00;0.90;;;12.10;1.00;;;;;;4994643;28;20037;-79
2021/05/15 11:40:41;;;;;;;1.13;0.98;;;12.10;1.00;;;;;;4992793;28;20193;-80
2021/05/15 11:43:07;;;;;;;2.72;1.25;;;12.10;99.90;;;;;;4993104;28;20057;-80
2021/05/15 11:45:34;;;;;;;1.92;1.33;;;12.00;99.90;;;;;;4993166;28;20113;-81
2021/05/15 11:48:19;;;;;;;2.03;1.20;;;12.20;99.90;;;;;;4990795;28;20082;-79
2021/05/15 11:51:11;;;;;;;1.98;1.00;;;12.10;1.00;;;;;;4992440;28;20030;-80
2021/05/15 11:53:41;;;;;;;1.20;0.93;;;12.20;1.00;;;;;;4991603;28;20105;-79
2021/05/15 11:56:17;;;;;;;2.88;0.98;;;11.70;1.00;;;;;;4994400;28;20033;-79
2021/05/15 11:58:47;;;;;;;1.40;0.75;;;12.00;1.00;;;;;;4992584;28;20034;-80
2021/05/15 12:01:17;;;;;;;1.10;1.00;;;12.10;1.00;;;;;;4993117;28;20061;-79
2021/05/15 12:03:43;;;;;;;1.42;0.98;;;12.80;1.00;;;;;;4992178;28;20057;-79
2021/05/15 12:06:13;;;;;;;2.20;1.35;;;12.80;1.00;;;;;;4992516;28;20058;-79
2021/05/15 12:08:40;;;;;;;4.03;1.10;;;12.60;1.00;;;;;;4993133;28;20021;-79
2021/05/15 12:11:06;;;;;;;2.17;0.93;;;12.10;99.90;;;;;;4994255;28;20106;-80
2021/05/15 12:13:31;;;;;;;0.82;0.82;;;12.10;1.00;;;;;;4992237;28;20117;-79
2021/05/15 12:15:57;;;;;;;2.35;1.20;;;11.50;87.20;;;;;;4992338;28;20037;-79
2021/05/15 12:18:22;;;;;;;2.55;0.90;;;12.40;57.90;;;;;;4992272;28;20575;-80
2021/05/15 12:20:51;;;;;;;2.58;1.25;;;12.10;1.00;;;;;;4992256;28;20038;-79
2021/05/15 12:23:20;;;;;;;5.75;1.20;;;12.50;1.00;;;;;;4994603;28;20026;-80
2021/05/15 12:26:16;;;;;;;2.10;1.15;;;12.20;1.00;;;;;;4992026;28;20038;-79
2021/05/15 12:28:47;;;;;;;2.13;1.20;;;12.20;1.00;;;;;;4980948;28;20042;-79
2021/05/15 12:31:24;;;;;;;2.83;1.00;;;12.70;1.00;;;;;;4990750;28;20061;-80
2021/05/15 12:33:52;;;;;;;2.15;0.90;;;12.40;1.00;;;;;;4991630;28;20594;-79
2021/05/15 12:36:18;;;;;;;1.60;1.05;;;12.80;1.00;;;;;;4992109;28;20058;-79
2021/05/15 12:38:49;;;;;;;3.08;1.30;;;12.50;1.00;;;;;;4992417;28;20072;-79
2021/05/15 12:41:44;;;;;;;1.70;0.98;;;12.20;1.00;;;;;;4994189;28;20030;-80
2021/05/15 12:44:12;;;;;;;0.88;0.70;;;12.20;1.00;;;;;;4991928;28;20068;-80
2021/05/15 12:46:39;;;;;;;0.90;0.85;;;12.50;89.70;;;;;;4991586;28;20368;-79
2021/05/15 12:49:10;;;;;;;1.83;1.20;;;12.30;1.00;;;;;;4991270;28;20074;-80
2021/05/15 12:51:41;;;;;;;1.40;1.08;;;12.50;1.00;;;;;;4992026;28;20069;-80
2021/05/15 12:54:32;;;;;;;1.23;1.10;;;12.60;1.00;;;;;;4992052;28;20015;-80
2021/05/15 12:57:00;;;;;;;2.45;1.13;;;12.70;1.00;;;;;;4966717;28;20030;-79
2021/05/15 12:59:30;;;;;;;2.42;1.27;;;12.50;1.00;;;;;;4988975;28;20030;-80